createdAt,value
2022-09-04T00:10:40.117Z,4.68
2022-09-04T00:25:57.639Z,2.90
2022-09-04T00:41:33.352Z,3.97
2022-09-04T00:56:53.890Z,5.75
2022-09-04T01:12:20.098Z,6.03
2022-09-04T01:27:27.180Z,3.90
2022-09-04T01:42:44.941Z,3.45
2022-09-04T01:58:08.566Z,6.88
2022-09-04T02:13:45.240Z,3.83
2022-09-04T02:29:02.713Z,4.55
2022-09-04T02:44:36.120Z,4.40
2022-09-04T03:00:21.640Z,3.70
2022-09-04T03:15:45.877Z,3.47
2022-09-04T03:30:51.653Z,3.45
2022-09-04T03:46:08.789Z,3.75
2022-09-04T04:01:28.024Z,3.88
2022-09-04T04:17:04.341Z,6.43
2022-09-04T04:32:13.732Z,3.53
2022-09-04T04:47:54.840Z,4.70
2022-09-04T05:03:16.801Z,4.53
2022-09-04T05:18:45.501Z,3.78
2022-09-04T05:34:30.543Z,6.82
2022-09-04T05:50:08.549Z,6.97
2022-09-04T06:05:22.380Z,7.22
2022-09-04T06:20:44.215Z,6.35
2022-09-04T06:36:22.587Z,9.00
2022-09-04T06:51:28.786Z,9.65
2022-09-04T07:06:49.220Z,6.55
2022-09-04T07:37:28.184Z,5.95
2022-09-04T07:53:01.380Z,9.50
2022-09-04T08:08:23.521Z,6.88
2022-09-04T08:39:07.329Z,7.07
2022-09-04T08:54:35.621Z,8.52
2022-09-04T09:10:29.433Z,5.80
2022-09-04T09:25:51.260Z,4.63
2022-09-04T09:41:00.766Z,4.95
2022-09-04T09:56:41.107Z,6.10
2022-09-04T10:11:55.558Z,5.43
2022-09-04T10:27:19.586Z,5.75
2022-09-04T10:42:32.112Z,7.60
2022-09-04T10:57:42.697Z,5.55
2022-09-04T11:12:59.597Z,6.43
2022-09-04T11:28:34.837Z,6.50
2022-09-04T11:43:52.159Z,9.13
2022-09-04T11:59:27.537Z,6.32
2022-09-04T12:14:47.830Z,9.02
2022-09-04T12:29:52.839Z,4.32
2022-09-04T12:45:15.795Z,5.22
2022-09-04T13:00:18.368Z,6.00
2022-09-04T13:15:35.267Z,4.38
2022-09-04T13:30:46.521Z,5.68
2022-09-04T13:45:55.814Z,5.40
2022-09-04T14:01:07.602Z,4.10
2022-09-04T14:16:11.883Z,2.67
2022-09-04T14:31:34.036Z,3.03
2022-09-04T14:46:47.506Z,6.13
2022-09-04T15:02:01.973Z,3.00
2022-09-04T15:17:13.141Z,3.15
2022-09-04T15:32:22.120Z,3.28
2022-09-04T16:03:06.460Z,2.38
2022-09-04T16:18:19.256Z,1.20
2022-09-04T16:33:44.199Z,2.40
2022-09-04T16:48:53.077Z,3.13
2022-09-04T17:04:14.414Z,4.07
2022-09-04T17:19:16.827Z,2.90
2022-09-04T17:40:06.226Z,4.85
2022-09-04T18:05:43.457Z,7.23
2022-09-04T18:21:12.329Z,4.72
2022-09-04T18:37:23.207Z,3.03
2022-09-04T18:52:00.696Z,1.73
2022-09-04T19:07:18.905Z,0.90
2022-09-04T19:22:28.383Z,1.17
2022-09-04T19:53:38.723Z,1.25
2022-09-04T20:08:48.527Z,1.27
2022-09-04T20:24:05.008Z,1.13
2022-09-04T20:39:41.107Z,0.80
2022-09-04T20:55:06.771Z,1.27
2022-09-04T21:10:34.928Z,1.15
2022-09-04T21:25:37.021Z,1.55
2022-09-04T21:41:13.114Z,1.33
2022-09-04T22:02:27.957Z,2.65
2022-09-04T22:13:46.007Z,3.90
2022-09-04T22:28:08.637Z,8.35
2022-09-04T22:43:15.474Z,10.98
2022-09-04T22:59:25.844Z,2.05
2022-09-04T23:14:40.238Z,5.68
2022-09-04T23:30:25.718Z,6.32
2022-09-04T23:45:48.611Z,7.00
